sensor_id;sensor_type;location;lat;lon;timestamp;P1;durP1;ratioP1;P2;durP2;ratioP2
35444;SDS011;21562;49.476;6.086;2023-10-19T00:00:39;15.40;;;8.18;;
35444;SDS011;21562;49.476;6.086;2023-10-19T00:03:09;17.67;;;8.55;;
35444;SDS011;21562;49.476;6.086;2023-10-19T00:05:36;17.13;;;8.27;;
35444;SDS011;21562;49.476;6.086;2023-10-19T00:08:03;21.05;;;9.63;;
35444;SDS011;21562;49.476;6.086;2023-10-19T00:10:32;19.40;;;8.65;;
35444;SDS011;21562;49.476;6.086;2023-10-19T00:13:00;17.77;;;9.20;;
35444;SDS011;21562;49.476;6.086;2023-10-19T00:15:29;16.83;;;8.68;;
35444;SDS011;21562;49.476;6.086;2023-10-19T00:17:57;13.02;;;7.72;;
35444;SDS011;21562;49.476;6.086;2023-10-19T00:20:31;13.43;;;5.07;;
35444;SDS011;21562;49.476;6.086;2023-10-19T00:23:16;11.20;;;5.88;;
35444;SDS011;21562;49.476;6.086;2023-10-19T00:25:54;15.05;;;5.63;;
35444;SDS011;21562;49.476;6.086;2023-10-19T00:28:21;10.98;;;4.70;;
35444;SDS011;21562;49.476;6.086;2023-10-19T00:30:47;15.57;;;5.03;;
35444;SDS011;21562;49.476;6.086;2023-10-19T00:33:15;12.55;;;4.05;;
35444;SDS011;21562;49.476;6.086;2023-10-19T00:35:42;7.97;;;2.78;;
35444;SDS011;21562;49.476;6.086;2023-10-19T00:38:12;5.25;;;2.58;;
35444;SDS011;21562;49.476;6.086;2023-10-19T00:41:08;9.10;;;2.78;;
35444;SDS011;21562;49.476;6.086;2023-10-19T00:43:35;7.10;;;2.47;;
35444;SDS011;21562;49.476;6.086;2023-10-19T00:46:02;5.90;;;2.63;;
35444;SDS011;21562;49.476;6.086;2023-10-19T00:48:33;6.95;;;2.58;;
35444;SDS011;21562;49.476;6.086;2023-10-19T00:50:59;6.65;;;2.70;;
35444;SDS011;21562;49.476;6.086;2023-10-19T00:53:35;9.35;;;1.90;;
35444;SDS011;21562;49.476;6.086;2023-10-19T00:56:03;9.05;;;1.95;;
35444;SDS011;21562;49.476;6.086;2023-10-19T00:58:31;10.88;;;2.13;;
35444;SDS011;21562;49.476;6.086;2023-10-19T01:01:01;9.40;;;1.90;;
35444;SDS011;21562;49.476;6.086;2023-10-19T01:03:30;7.47;;;1.98;;
35444;SDS011;21562;49.476;6.086;2023-10-19T01:06:01;6.07;;;1.52;;
35444;SDS011;21562;49.476;6.086;2023-10-19T01:08:30;7.47;;;1.33;;
35444;SDS011;21562;49.476;6.086;2023-10-19T01:11:06;7.15;;;1.85;;
35444;SDS011;21562;49.476;6.086;2023-10-19T01:13:36;14.50;;;1.70;;
35444;SDS011;21562;49.476;6.086;2023-10-19T01:16:11;7.05;;;1.80;;
35444;SDS011;21562;49.476;6.086;2023-10-19T01:18:45;8.57;;;1.13;;
35444;SDS011;21562;49.476;6.086;2023-10-19T01:24:05;9.88;;;1.38;;
35444;SDS011;21562;49.476;6.086;2023-10-19T01:26:32;4.80;;;0.90;;
35444;SDS011;21562;49.476;6.086;2023-10-19T01:29:02;7.40;;;1.00;;
35444;SDS011;21562;49.476;6.086;2023-10-19T01:31:38;7.05;;;1.10;;
35444;SDS011;21562;49.476;6.086;2023-10-19T01:34:16;9.18;;;1.48;;
35444;SDS011;21562;49.476;6.086;2023-10-19T01:36:45;12.02;;;1.50;;
35444;SDS011;21562;49.476;6.086;2023-10-19T01:39:15;9.55;;;1.92;;
35444;SDS011;21562;49.476;6.086;2023-10-19T01:41:41;7.97;;;1.25;;
35444;SDS011;21562;49.476;6.086;2023-10-19T01:44:07;9.50;;;1.15;;
35444;SDS011;21562;49.476;6.086;2023-10-19T01:46:36;10.40;;;1.42;;
35444;SDS011;21562;49.476;6.086;2023-10-19T01:49:03;6.43;;;1.35;;
35444;SDS011;21562;49.476;6.086;2023-10-19T01:51:30;9.18;;;1.20;;
35444;SDS011;21562;49.476;6.086;2023-10-19T01:54:08;9.68;;;1.30;;
35444;SDS011;21562;49.476;6.086;2023-10-19T01:56:35;8.90;;;1.25;;
35444;SDS011;21562;49.476;6.086;2023-10-19T01:59:02;9.38;;;1.40;;
35444;SDS011;21562;49.476;6.086;2023-10-19T02:01:29;7.85;;;1.20;;
35444;SDS011;21562;49.476;6.086;2023-10-19T02:03:57;9.65;;;1.33;;
35444;SDS011;21562;49.476;6.086;2023-10-19T02:06:26;8.90;;;1.23;;
35444;SDS011;21562;49.476;6.086;2023-10-19T02:11:42;7.82;;;1.70;;
35444;SDS011;21562;49.476;6.086;2023-10-19T02:14:12;7.22;;;1.27;;
35444;SDS011;21562;49.476;6.086;2023-10-19T02:16:42;8.15;;;1.15;;
35444;SDS011;21562;49.476;6.086;2023-10-19T02:19:08;8.68;;;1.05;;
35444;SDS011;21562;49.476;6.086;2023-10-19T02:21:34;9.50;;;1.80;;
35444;SDS011;21562;49.476;6.086;2023-10-19T02:24:05;9.27;;;1.52;;
35444;SDS011;21562;49.476;6.086;2023-10-19T02:26:32;13.05;;;1.40;;
35444;SDS011;21562;49.476;6.086;2023-10-19T02:28:58;9.93;;;1.40;;
35444;SDS011;21562;49.476;6.086;2023-10-19T02:31:24;10.45;;;1.58;;
35444;SDS011;21562;49.476;6.086;2023-10-19T02:33:51;9.27;;;1.88;;
35444;SDS011;21562;49.476;6.086;2023-10-19T02:36:24;10.57;;;1.50;;
35444;SDS011;21562;49.476;6.086;2023-10-19T02:38:53;13.32;;;1.48;;
35444;SDS011;21562;49.476;6.086;2023-10-19T02:41:23;8.93;;;1.40;;
35444;SDS011;21562;49.476;6.086;2023-10-19T02:43:51;11.68;;;1.50;;
35444;SDS011;21562;49.476;6.086;2023-10-19T02:46:30;6.28;;;1.15;;
35444;SDS011;21562;49.476;6.086;2023-10-19T02:49:02;12.73;;;1.35;;
35444;SDS011;21562;49.476;6.086;2023-10-19T02:51:40;11.40;;;1.65;;
35444;SDS011;21562;49.476;6.086;2023-10-19T02:54:09;8.18;;;1.17;;
35444;SDS011;21562;49.476;6.086;2023-10-19T02:56:42;11.27;;;1.65;;
35444;SDS011;21562;49.476;6.086;2023-10-19T02:59:09;9.27;;;1.63;;
35444;SDS011;21562;49.476;6.086;2023-10-19T03:01:34;10.57;;;1.40;;
35444;SDS011;21562;49.476;6.086;2023-10-19T03:04:00;9.65;;;2.05;;
35444;SDS011;21562;49.476;6.086;2023-10-19T03:06:28;11.15;;;1.85;;
35444;SDS011;21562;49.476;6.086;2023-10-19T03:09:03;11.67;;;1.50;;
35444;SDS011;21562;49.476;6.086;2023-10-19T03:11:37;10.90;;;1.17;;
35444;SDS011;21562;49.476;6.086;2023-10-19T03:14:07;16.40;;;1.85;;
35444;SDS011;21562;49.476;6.086;2023-10-19T03:16:35;7.32;;;1.88;;
35444;SDS011;21562;49.476;6.086;2023-10-19T03:19:01;10.43;;;1.45;;
35444;SDS011;21562;49.476;6.086;2023-10-19T03:21:29;11.32;;;1.52;;
35444;SDS011;21562;49.476;6.086;2023-10-19T03:24:08;10.82;;;1.38;;
35444;SDS011;21562;49.476;6.086;2023-10-19T03:26:57;11.45;;;1.60;;
35444;SDS011;21562;49.476;6.086;2023-10-19T03:29:24;10.88;;;1.48;;
35444;SDS011;21562;49.476;6.086;2023-10-19T03:32:03;13.88;;;1.42;;
35444;SDS011;21562;49.476;6.086;2023-10-19T03:34:33;8.60;;;1.02;;
35444;SDS011;21562;49.476;6.086;2023-10-19T03:37:00;12.25;;;1.63;;
35444;SDS011;21562;49.476;6.086;2023-10-19T03:39:30;14.43;;;3.20;;
35444;SDS011;21562;49.476;6.086;2023-10-19T03:41:59;14.57;;;2.40;;
35444;SDS011;21562;49.476;6.086;2023-10-19T03:44:25;15.88;;;1.60;;
35444;SDS011;21562;49.476;6.086;2023-10-19T03:46:51;10.40;;;1.40;;
35444;SDS011;21562;49.476;6.086;2023-10-19T03:49:26;8.77;;;1.30;;
35444;SDS011;21562;49.476;6.086;2023-10-19T03:52:02;12.40;;;1.90;;
35444;SDS011;21562;49.476;6.086;2023-10-19T03:54:34;9.88;;;1.58;;
35444;SDS011;21562;49.476;6.086;2023-10-19T03:57:05;15.75;;;2.88;;
35444;SDS011;21562;49.476;6.086;2023-10-19T03:59:37;10.27;;;1.45;;
35444;SDS011;21562;49.476;6.086;2023-10-19T04:02:03;11.60;;;1.77;;
35444;SDS011;21562;49.476;6.086;2023-10-19T04:04:35;11.15;;;1.95;;
35444;SDS011;21562;49.476;6.086;2023-10-19T04:07:03;10.60;;;1.20;;
35444;SDS011;21562;49.476;6.086;2023-10-19T04:09:36;10.55;;;1.45;;
35444;SDS011;21562;49.476;6.086;2023-10-19T04:12:21;10.95;;;1.50;;
35444;SDS011;21562;49.476;6.086;2023-10-19T04:14:48;9.45;;;1.35;;
35444;SDS011;21562;49.476;6.086;2023-10-19T04:17:13;13.60;;;2.28;;
35444;SDS011;21562;49.476;6.086;2023-10-19T04:19:39;8.88;;;1.52;;
35444;SDS011;21562;49.476;6.086;2023-10-19T04:22:05;9.18;;;1.27;;
35444;SDS011;21562;49.476;6.086;2023-10-19T04:24:30;4.88;;;1.10;;
35444;SDS011;21562;49.476;6.086;2023-10-19T04:26:58;11.13;;;2.17;;
35444;SDS011;21562;49.476;6.086;2023-10-19T04:29:24;12.18;;;1.50;;
35444;SDS011;21562;49.476;6.086;2023-10-19T04:31:52;9.68;;;1.67;;
35444;SDS011;21562;49.476;6.086;2023-10-19T04:34:22;11.10;;;1.70;;
35444;SDS011;21562;49.476;6.086;2023-10-19T04:36:48;8.95;;;2.15;;
35444;SDS011;21562;49.476;6.086;2023-10-19T04:39:14;8.95;;;1.70;;
35444;SDS011;21562;49.476;6.086;2023-10-19T04:41:40;9.35;;;1.58;;
35444;SDS011;21562;49.476;6.086;2023-10-19T04:44:06;10.27;;;2.15;;
35444;SDS011;21562;49.476;6.086;2023-10-19T05:43:57;7.68;;;2.00;;
35444;SDS011;21562;49.476;6.086;2023-10-19T05:46:25;11.48;;;2.33;;
35444;SDS011;21562;49.476;6.086;2023-10-19T05:48:50;9.75;;;2.10;;
35444;SDS011;21562;49.476;6.086;2023-10-19T05:51:19;14.43;;;1.85;;
35444;SDS011;21562;49.476;6.086;2023-10-19T05:53:44;13.45;;;2.72;;
35444;SDS011;21562;49.476;6.086;2023-10-19T05:56:10;9.30;;;1.52;;
35444;SDS011;21562;49.476;6.086;2023-10-19T05:58:36;9.57;;;2.10;;
35444;SDS011;21562;49.476;6.086;2023-10-19T06:01:02;12.93;;;1.75;;
35444;SDS011;21562;49.476;6.086;2023-10-19T06:03:27;5.38;;;1.58;;
35444;SDS011;21562;49.476;6.086;2023-10-19T06:05:53;8.77;;;2.03;;
35444;SDS011;21562;49.476;6.086;2023-10-19T06:08:21;10.43;;;1.83;;
35444;SDS011;21562;49.476;6.086;2023-10-19T06:10:50;8.63;;;1.65;;
35444;SDS011;21562;49.476;6.086;2023-10-19T06:13:17;7.20;;;1.75;;
35444;SDS011;21562;49.476;6.086;2023-10-19T06:15:43;7.03;;;2.00;;
35444;SDS011;21562;49.476;6.086;2023-10-19T06:18:09;4.70;;;1.73;;
35444;SDS011;21562;49.476;6.086;2023-10-19T06:20:35;6.78;;;2.15;;
35444;SDS011;21562;49.476;6.086;2023-10-19T06:23:01;8.55;;;1.77;;
35444;SDS011;21562;49.476;6.086;2023-10-19T06:25:31;6.00;;;1.70;;
35444;SDS011;21562;49.476;6.086;2023-10-19T06:28:00;5.82;;;1.33;;
35444;SDS011;21562;49.476;6.086;2023-10-19T06:30:26;6.20;;;1.80;;
35444;SDS011;21562;49.476;6.086;2023-10-19T06:32:56;22.10;;;5.13;;
